Time;durP1;ratioP1;P1;durP2;ratioP2;P2;SDS_P1;SDS_P2;PMS_P1;PMS_P2;Temp;Humidity;BMP_temperature;BMP_pressure;BME280_temperature;BME280_humidity;BME280_pressure;Samples;Min_cycle;Max_cycle;Signal;HPM_P1;HPM_P2
2021/05/02 00:01:47;;;;;;;;;;;;;;;6.13;85.86;98536.53;4956707;28;19961;-84
2021/05/02 00:04:13;;;;;;;;;;;;;;;6.09;86.19;98537.06;4963571;28;19945;-83
2021/05/02 00:06:41;;;;;;;;;;;;;;;6.10;86.29;98536.06;4961505;28;19932;-83
2021/05/02 00:09:07;;;;;;;;;;;;;;;6.06;85.96;98540.09;4959348;28;20342;-84
2021/05/02 00:11:33;;;;;;;;;;;;;;;6.08;86.35;98538.94;4956186;28;19950;-83
2021/05/02 00:14:01;;;;;;;;;;;;;;;6.19;86.46;98549.34;4957392;28;19934;-84
2021/05/02 00:16:28;;;;;;;;;;;;;;;6.08;86.49;98546.16;4956421;28;19935;-84
2021/05/02 00:18:55;;;;;;;;;;;;;;;6.14;85.76;98554.44;4958650;28;20682;-84
2021/05/02 00:21:24;;;;;;;;;;;;;;;6.10;87.04;98555.78;4961308;28;19949;-84
2021/05/02 00:23:51;;;;;;;;;;;;;;;6.10;87.21;98552.25;4960009;28;19939;-84
2021/05/02 00:26:20;;;;;;;;;;;;;;;6.19;87.58;98552.03;4956919;28;19930;-85
2021/05/02 00:28:52;;;;;;;;;;;;;;;6.12;87.37;98561.84;4957753;28;19934;-84
2021/05/02 00:31:19;;;;;;;;;;;;;;;6.21;87.91;98559.97;4960298;28;19926;-84
2021/05/02 00:33:45;;;;;;;;;;;;;;;6.13;88.44;98566.22;4948756;28;20108;-84
2021/05/02 00:36:12;;;;;;;;;;;;;;;6.09;88.52;98564.88;4953663;28;19926;-85
2021/05/02 00:38:39;;;;;;;;;;;;;;;6.15;88.57;98566.88;4964333;28;20440;-85
2021/05/02 00:41:09;;;;;;;;;;;;;;;6.10;88.34;98571.13;4956349;28;19932;-85
2021/05/02 00:43:37;;;;;;;;;;;;;;;6.07;88.38;98579.53;4964198;28;19985;-85
2021/05/02 00:46:09;;;;;;;;;;;;;;;6.03;88.34;98579.06;4957095;28;19955;-84
2021/05/02 00:48:43;;;;;;;;;;;;;;;6.06;88.82;98576.00;4947021;28;20460;-85
2021/05/02 00:51:11;;;;;;;;;;;;;;;6.07;88.33;98572.31;4959045;28;20045;-85
2021/05/02 00:53:45;;;;;;;;;;;;;;;6.03;87.58;98579.06;4968053;28;20029;-84
2021/05/02 00:56:17;;;;;;;;;;;;;;;5.94;87.02;98578.19;4958361;28;19930;-85
2021/05/02 00:58:49;;;;;;;;;;;;;;;5.93;87.66;98590.00;4954062;28;19935;-84
2021/05/02 01:01:18;;;;;;;;;;;;;;;6.00;87.07;98584.78;4962218;28;20440;-84
2021/05/02 01:03:46;;;;;;;;;;;;;;;5.96;87.26;98592.38;4958629;28;19926;-85
2021/05/02 01:06:24;;;;;;;;;;;;;;;;;;;;;
2021/05/02 01:08:51;;;;;;;;;;;;;;;5.72;87.02;98597.75;4945149;28;19926;-84
2021/05/02 01:11:20;;;;;;;;;;;;;;;5.71;87.40;98606.88;4965721;28;19934;-84
2021/05/02 01:13:53;;;;;;;;;;;;;;;5.66;87.19;98604.63;4964078;28;19937;-84
2021/05/02 01:16:20;;;;;;;;;;;;;;;5.69;87.27;98617.81;4966029;28;19965;-84
2021/05/02 01:18:47;;;;;;;;;;;;;;;5.68;87.67;98608.88;4965883;28;20413;-83
2021/05/02 01:21:14;;;;;;;;;;;;;;;5.73;87.77;98608.34;4964806;28;19926;-83
2021/05/02 01:23:43;;;;;;;;;;;;;;;5.75;88.47;98602.78;4958080;28;19945;-84
2021/05/02 01:26:09;;;;;;;;;;;;;;;5.84;87.63;98610.75;4965559;28;20386;-84
2021/05/02 01:28:36;;;;;;;;;;;;;;;5.76;88.26;98616.13;4966115;28;19926;-83
2021/05/02 01:31:02;;;;;;;;;;;;;;;5.70;87.95;98616.78;4965557;28;19955;-83
2021/05/02 01:33:28;;;;;;;;;;;;;;;5.75;88.73;98618.97;4964051;28;19930;-83
2021/05/02 01:35:55;;;;;;;;;;;;;;;5.76;88.50;98620.69;4968496;28;20092;-80
2021/05/02 01:38:22;;;;;;;;;;;;;;;5.70;88.69;98621.34;4971528;28;19926;-83
2021/05/02 01:40:53;;;;;;;;;;;;;;;5.64;88.90;98623.69;4971898;28;20409;-81
2021/05/02 01:43:19;;;;;;;;;;;;;;;5.64;89.18;98628.25;4967932;28;19930;-82
2021/05/02 01:45:45;;;;;;;;;;;;;;;5.59;88.87;98636.00;4969945;28;19981;-82
2021/05/02 01:48:13;;;;;;;;;;;;;;;5.64;88.59;98631.78;4972313;28;19930;-82
2021/05/02 01:50:42;;;;;;;;;;;;;;;5.62;88.78;98625.72;4970218;28;19933;-82
2021/05/02 01:53:11;;;;;;;;;;;;;;;5.69;88.47;98634.00;4969526;28;19938;-82
2021/05/02 01:55:38;;;;;;;;;;;;;;;5.67;88.08;98636.88;4958918;28;20413;-82
2021/05/02 01:58:07;;;;;;;;;;;;;;;5.70;88.87;98632.97;4964775;28;19937;-82
2021/05/02 02:00:41;;;;;;;;;;;;;;;5.62;88.98;98641.06;4972102;28;19933;-81
2021/05/02 02:03:08;;;;;;;;;;;;;;;5.68;89.05;98649.31;4966394;28;20058;-82
2021/05/02 02:05:35;;;;;;;;;;;;;;;5.73;88.85;98648.00;4973103;28;20250;-82
2021/05/02 02:08:01;;;;;;;;;;;;;;;5.75;88.51;98649.50;4974126;28;19926;-83
2021/05/02 02:10:27;;;;;;;;;;;;;;;5.86;88.34;98648.34;4974845;28;19930;-83
2021/05/02 02:12:54;;;;;;;;;;;;;;;5.81;88.73;98656.06;4979305;28;19933;-83
2021/05/02 02:15:21;;;;;;;;;;;;;;;5.81;88.68;98658.78;4975914;28;19930;-83
2021/05/02 02:17:47;;;;;;;;;;;;;;;5.83;88.97;98668.41;4978474;28;19965;-83
2021/05/02 02:20:14;;;;;;;;;;;;;;;5.86;89.21;98667.22;4978172;28;19935;-83
2021/05/02 02:22:41;;;;;;;;;;;;;;;5.74;89.01;98671.25;4975399;28;19937;-83
2021/05/02 02:25:08;;;;;;;;;;;;;;;5.76;89.64;98674.63;4974592;28;20011;-83
2021/05/02 02:27:38;;;;;;;;;;;;;;;5.79;90.07;98671.59;4975088;28;19966;-83
2021/05/02 02:30:05;;;;;;;;;;;;;;;5.76;89.95;98666.53;4975271;28;19945;-83
2021/05/02 02:32:33;;;;;;;;;;;;;;;5.77;90.44;98677.16;4973538;28;20345;-83
2021/05/02 02:34:59;;;;;;;;;;;;;;;5.71;90.12;98677.00;4975157;28;19926;-82
2021/05/02 02:37:26;;;;;;;;;;;;;;;5.71;89.91;98683.22;4974036;28;19934;-83
2021/05/02 02:39:53;;;;;;;;;;;;;;;5.66;90.40;98685.53;4975307;28;19927;-82
2021/05/02 02:42:21;;;;;;;;;;;;;;;5.65;90.54;98683.88;4973977;28;20402;-82
2021/05/02 02:44:49;;;;;;;;;;;;;;;5.59;90.67;98690.78;4975060;28;19930;-82
2021/05/02 02:47:18;;;;;;;;;;;;;;;5.54;90.94;98692.25;4969923;28;19933;-83
2021/05/02 02:49:46;;;;;;;;;;;;;;;5.55;90.07;98693.97;4968760;28;19933;-83
2021/05/02 02:52:14;;;;;;;;;;;;;;;5.58;89.77;98704.41;4974664;28;19957;-83
2021/05/02 02:54:42;;;;;;;;;;;;;;;5.65;89.79;98702.75;4974373;28;19926;-83
2021/05/02 02:57:09;;;;;;;;;;;;;;;5.62;89.54;98705.78;4973834;28;20366;-83
2021/05/02 02:59:37;;;;;;;;;;;;;;;5.63;89.31;98705.63;4975056;28;19973;-82
2021/05/02 03:02:06;;;;;;;;;;;;;;;5.63;89.71;98711.00;4972840;28;20204;-83
2021/05/02 03:04:34;;;;;;;;;;;;;;;5.63;89.91;98707.44;4972368;28;19926;-83
2021/05/02 03:07:02;;;;;;;;;;;;;;;5.64;90.39;98709.16;4956324;28;20416;-82
2021/05/02 03:09:29;;;;;;;;;;;;;;;5.66;90.33;98713.38;4974787;28;19930;-83
2021/05/02 03:11:54;;;;;;;;;;;;;;;5.61;89.64;98715.72;4972080;28;19974;-82
2021/05/02 03:14:20;;;;;;;;;;;;;;;5.59;89.16;98714.22;4974827;28;20014;-82
2021/05/02 03:16:49;;;;;;;;;;;;;;;5.60;89.63;98724.81;4974296;28;19926;-82
2021/05/02 03:19:17;;;;;;;;;;;;;;;5.60;88.83;98723.97;4974668;28;19927;-83
2021/05/02 03:21:45;;;;;;;;;;;;;;;5.68;89.00;98729.41;4956110;28;19930;-82
2021/05/02 03:24:14;;;;;;;;;;;;;;;5.67;88.47;98739.34;4971822;28;19980;-82
2021/05/02 03:26:41;;;;;;;;;;;;;;;5.64;88.57;98733.41;4974638;28;20009;-83
2021/05/02 03:29:09;;;;;;;;;;;;;;;5.56;86.71;98736.94;4972827;28;19930;-82
2021/05/02 03:31:38;;;;;;;;;;;;;;;5.63;86.85;98743.38;4973601;28;19930;-82
2021/05/02 03:34:05;;;;;;;;;;;;;;;5.60;86.48;98748.22;4973067;28;19973;-82
2021/05/02 03:36:33;;;;;;;;;;;;;;;5.46;86.63;98755.94;4974588;28;19980;-82
2021/05/02 03:38:59;;;;;;;;;;;;;;;5.47;86.27;98748.72;4972578;28;19930;-82
2021/05/02 03:41:27;;;;;;;;;;;;;;;5.50;86.65;98754.59;4973105;28;19973;-82
2021/05/02 03:43:53;;;;;;;;;;;;;;;5.58;86.84;98763.75;4974164;28;19926;-82
2021/05/02 03:46:25;;;;;;;;;;;;;;;5.59;87.70;98751.97;4973076;28;19930;-82
2021/05/02 03:48:55;;;;;;;;;;;;;;;5.65;87.42;98757.53;4974546;28;19984;-82
2021/05/02 03:51:22;;;;;;;;;;;;;;;5.64;88.38;98758.53;4972910;28;19973;-83
2021/05/02 03:53:48;;;;;;;;;;;;;;;5.68;88.20;98765.28;4972898;28;19930;-83
2021/05/02 03:56:28;;;;;;;;;;;;;;;5.59;88.51;98768.97;4965846;28;19973;-82
2021/05/02 03:59:03;;;;;;;;;;;;;;;5.62;89.03;98773.19;4973879;28;19926;-82
2021/05/02 04:01:29;;;;;;;;;;;;;;;5.66;88.95;98771.84;4973070;28;19926;-82
2021/05/02 04:03:54;;;;;;;;;;;;;;;5.65;89.06;98778.28;4972266;28;19930;-83
2021/05/02 04:06:21;;;;;;;;;;;;;;;5.71;89.04;98779.47;4972567;28;19926;-82
2021/05/02 04:08:46;;;;;;;;;;;;;;;5.66;88.75;98778.09;4970782;28;20090;-83
2021/05/02 04:11:12;;;;;;;;;;;;;;;5.75;88.15;98788.91;4967540;28;19934;-83
2021/05/02 04:13:41;;;;;;;;;;;;;;;5.63;89.54;98788.34;4968267;28;20106;-83
2021/05/02 04:16:08;;;;;;;;;;;;;;;5.63;89.86;98786.53;4973582;28;19930;-83
2021/05/02 04:18:34;;;;;;;;;;;;;;;5.67;89.49;98792.44;4972114;28;19934;-82
2021/05/02 04:21:00;;;;;;;;;;;;;;;5.66;89.84;98790.72;4967357;28;20298;-83
2021/05/02 04:23:26;;;;;;;;;;;;;;;5.60;89.66;98802.16;4972568;28;19934;-82
2021/05/02 04:25:52;;;;;;;;;;;;;;;5.60;90.36;98797.63;4972646;28;20009;-83
2021/05/02 04:28:21;;;;;;;;;;;;;;;5.66;90.25;98797.00;4969196;28;20279;-82
2021/05/02 04:30:47;;;;;;;;;;;;;;;5.62;90.32;98803.69;4955495;28;20438;-83
2021/05/02 04:33:14;;;;;;;;;;;;;;;5.70;89.99;98802.06;4972900;28;19969;-83
2021/05/02 04:35:40;;;;;;;;;;;;;;;5.70;89.91;98799.34;4971818;28;19942;-83
2021/05/02 04:38:06;;;;;;;;;;;;;;;5.73;90.13;98807.97;4973591;28;19930;-82
2021/05/02 04:40:32;;;;;;;;;;;;;;;5.75;89.96;98808.66;4972245;28;19944;-82
2021/05/02 04:42:58;;;;;;;;;;;;;;;5.74;89.89;98816.91;4972485;28;19981;-82
2021/05/02 04:45:24;;;;;;;;;;;;;;;5.66;90.38;98818.56;4971518;28;19949;-82
2021/05/02 04:47:52;;;;;;;;;;;;;;;5.68;90.26;98827.31;4972871;28;19926;-82
2021/05/02 04:50:32;;;;;;;;;;;;;;;5.76;90.19;98831.06;4970856;28;19926;-82
2021/05/02 04:53:00;;;;;;;;;;;;;;;5.77;90.08;98835.47;4964721;28;20460;-82
2021/05/02 04:55:26;;;;;;;;;;;;;;;5.79;90.15;98841.53;4972182;28;19926;-82
2021/05/02 04:57:53;;;;;;;;;;;;;;;5.78;89.93;98845.22;4972739;28;19936;-82
2021/05/02 05:00:20;;;;;;;;;;;;;;;5.83;90.05;98849.13;4972056;28;19930;-82
2021/05/02 05:02:48;;;;;;;;;;;;;;;5.85;90.00;98857.06;4973399;28;19926;-82
2021/05/02 05:05:17;;;;;;;;;;;;;;;5.84;90.24;98850.84;4970168;28;20275;-82
2021/05/02 05:07:43;;;;;;;;;;;;;;;5.84;90.09;98852.66;4971625;28;19961;-82
2021/05/02 05:10:13;;;;;;;;;;;;;;;5.95;90.38;98856.97;4972290;28;19930;-82
2021/05/02 05:12:43;;;;;;;;;;;;;;;5.99;89.66;98861.91;4971614;28;19933;-82
2021/05/02 05:15:10;;;;;;;;;;;;;;;6.10;89.74;98865.31;4971903;28;19933;-82
2021/05/02 05:17:38;;;;;;;;;;;;;;;6.31;87.97;98860.28;4970832;28;19988;-82
2021/05/02 05:20:05;;;;;;;;;;;;;;;6.23;88.20;98862.13;4939157;28;19926;-82
2021/05/02 05:22:33;;;;;;;;;;;;;;;6.26;89.35;98867.19;4969359;28;19982;-82
2021/05/02 05:25:01;;;;;;;;;;;;;;;6.28;89.33;98871.44;4972334;28;19980;-82
2021/05/02 05:27:28;;;;;;;;;;;;;;;6.33;89.50;98873.63;4972424;28;19937;-82
2021/05/02 05:29:54;;;;;;;;;;;;;;;6.27;88.47;98882.38;4971973;28;19926;-82
2021/05/02 05:32:20;;;;;;;;;;;;;;;6.41;87.91;98886.31;4971541;28;20052;-82
2021/05/02 05:34:46;;;;;;;;;;;;;;;6.43;88.15;98886.97;4971381;28;19930;-82
2021/05/02 05:37:12;;;;;;;;;;;;;;;6.44;87.48;98892.22;4972112;28;19933;-82
2021/05/02 05:39:48;;;;;;;;;;;;;;;6.46;88.31;98894.75;4965824;28;19926;-81
2021/05/02 05:42:14;;;;;;;;;;;;;;;6.60;88.04;98891.41;4972507;28;19933;-81
2021/05/02 05:44:41;;;;;;;;;;;;;;;6.66;87.20;98895.31;4971571;28;19926;-82
2021/05/02 05:47:08;;;;;;;;;;;;;;;6.72;87.29;98891.94;4970821;28;20029;-82
2021/05/02 05:49:34;;;;;;;;;;;;;;;6.72;87.59;98898.19;4972430;28;19926;-82
2021/05/02 05:52:01;;;;;;;;;;;;;;;6.75;87.25;98906.97;4971541;28;19938;-83
2021/05/02 05:54:27;;;;;;;;;;;;;;;6.89;87.29;98907.16;4973295;28;19926;-82
2021/05/02 05:56:53;;;;;;;;;;;;;;;6.96;86.97;98896.53;4971065;28;19926;-82
2021/05/02 05:59:19;;;;;;;;;;;;;;;6.96;86.72;98901.09;4972855;28;19930;-82
2021/05/02 06:01:46;;;;;;;;;;;;;;;6.99;86.17;98904.28;4972538;28;19926;-81
2021/05/02 06:04:12;;;;;;;;;;;;;;;6.91;86.82;98907.00;4971333;28;19941;-81
2021/05/02 06:06:38;;;;;;;;;;;;;;;6.97;85.53;98905.47;4969282;28;19930;-82
2021/05/02 06:09:05;;;;;;;;;;;;;;;6.93;86.03;98914.94;4970156;28;19927;-81
2021/05/02 06:11:31;;;;;;;;;;;;;;;6.95;86.15;98921.00;4968824;28;20357;-83
2021/05/02 06:13:57;;;;;;;;;;;;;;;7.05;85.58;98906.31;4970979;28;19949;-82
2021/05/02 06:16:24;;;;;;;;;;;;;;;7.12;86.63;98914.63;4971277;28;20043;-83
2021/05/02 06:18:52;;;;;;;;;;;;;;;7.11;84.55;98912.06;4975366;28;19927;-82
2021/05/02 06:21:21;;;;;;;;;;;;;;;7.17;85.38;98916.81;4974316;28;20021;-82
2021/05/02 06:23:49;;;;;;;;;;;;;;;7.24;84.40;98920.50;4967563;28;19937;-82
2021/05/02 06:26:16;;;;;;;;;;;;;;;7.33;84.58;98921.34;4964966;28;19927;-82
2021/05/02 06:28:42;;;;;;;;;;;;;;;7.41;84.59;98916.78;4974080;28;19997;-82
2021/05/02 06:31:08;;;;;;;;;;;;;;;7.44;83.70;98924.56;4972817;28;19933;-79
2021/05/02 06:33:34;;;;;;;;;;;;;;;7.54;84.14;98918.09;4973084;28;19926;-80
2021/05/02 06:36:01;;;;;;;;;;;;;;;7.66;83.84;98921.31;4972413;28;20227;-80
2021/05/02 06:38:27;;;;;;;;;;;;;;;7.60;83.10;98923.69;4971166;28;20338;-79
2021/05/02 06:40:59;;;;;;;;;;;;;;;7.73;83.11;98922.31;4974040;28;19933;-79
2021/05/02 06:43:25;;;;;;;;;;;;;;;7.85;80.99;98925.50;4967840;28;19969;-81
2021/05/02 06:45:53;;;;;;;;;;;;;;;7.89;81.29;98929.53;4958524;28;19933;-82
2021/05/02 06:48:19;;;;;;;;;;;;;;;7.96;81.51;98928.69;4967056;28;19930;-82
2021/05/02 06:50:45;;;;;;;;;;;;;;;8.04;80.19;98935.94;4973749;28;19934;-82
2021/05/02 06:53:12;;;;;;;;;;;;;;;8.07;80.05;98935.59;4973789;28;20433;-83
2021/05/02 06:55:41;;;;;;;;;;;;;;;8.08;79.53;98939.13;4973741;28;19926;-82
2021/05/02 06:58:08;;;;;;;;;;;;;;;8.00;79.27;98936.47;4972376;28;19988;-82
2021/05/02 07:00:36;;;;;;;;;;;;;;;7.90;77.95;98940.22;4972436;28;19933;-82
2021/05/02 07:03:02;;;;;;;;;;;;;;;7.92;75.42;98940.88;4973482;28;19926;-80
2021/05/02 07:05:31;;;;;;;;;;;;;;;7.90;77.75;98942.91;4970325;28;19949;-83
2021/05/02 07:07:57;;;;;;;;;;;;;;;8.09;77.72;98948.94;4956618;28;20343;-81
2021/05/02 07:10:33;;;;;;;;;;;;;;;8.35;77.25;98947.84;4965351;28;19926;-81
2021/05/02 07:12:59;;;;;;;;;;;;;;;8.47;74.66;98955.41;4971191;28;19935;-80
2021/05/02 07:15:25;;;;;;;;;;;;;;;8.43;74.92;98951.34;4946936;28;19927;-80
2021/05/02 07:17:58;;;;;;;;;;;;;;;8.28;75.94;98953.09;4954530;28;19927;-80
2021/05/02 07:20:51;;;;;;;;;;;;;;;;;;;;;
2021/05/02 07:23:46;;;;;;;;;;;;;;;8.28;76.13;98963.91;4958191;28;19930;-81
2021/05/02 07:26:22;;;;;;;;;;;;;;;8.53;75.46;98959.28;4945414;28;20557;-80
2021/05/02 07:28:48;;;;;;;;;;;;;;;8.49;76.02;98964.22;4957307;28;19941;-80
2021/05/02 07:31:15;;;;;;;;;;;;;;;8.66;73.19;98962.28;4959215;28;19927;-81
2021/05/02 07:33:43;;;;;;;;;;;;;;;8.70;72.84;98968.16;4953499;28;19942;-81
2021/05/02 07:36:14;;;;;;;;;;;;;;;8.78;73.53;98960.00;4954228;28;20400;-80
2021/05/02 07:38:42;;;;;;;;;;;;;;;8.69;72.86;98977.34;4964205;28;20331;-81
2021/05/02 07:41:08;;;;;;;;;;;;;;;8.49;71.01;98976.91;4958255;28;19931;-80
2021/05/02 07:43:35;;;;;;;;;;;;;;;8.45;72.22;98975.59;4969426;28;19982;-81
2021/05/02 07:46:04;;;;;;;;;;;;;;;8.48;73.06;98967.94;4957983;28;20320;-81
2021/05/02 07:54:23;;;;;;;;;;;;;;;8.77;74.27;98981.88;4909538;29;20343;-81
2021/05/02 07:56:49;;;;;;;;;;;;;;;8.74;73.34;98983.06;4914206;29;19934;-80
2021/05/02 07:59:20;;;;;;;;;;;;;;;8.90;72.19;98987.56;4920593;29;19927;-81
2021/05/02 08:01:47;;;;;;;;;;;;;;;9.30;71.09;98982.03;4955477;28;20298;-81
2021/05/02 08:04:13;;;;;;;;;;;;;;;9.59;68.51;98983.16;4971218;28;20362;-81
2021/05/02 08:06:45;;;;;;;;;;;;;;;9.72;67.34;98981.50;4971030;28;19926;-81
2021/05/02 08:09:17;;;;;;;;;;;;;;;9.95;65.76;98985.19;4964688;28;19927;-81
2021/05/02 08:11:45;;;;;;;;;;;;;;;9.84;67.98;98978.34;4966588;28;20385;-82
2021/05/02 08:14:11;;;;;;;;;;;;;;;9.67;68.53;98985.81;4972550;28;19926;-81
2021/05/02 08:16:41;;;;;;;;;;;;;;;9.77;68.32;99002.69;4972184;28;19930;-82
2021/05/02 08:19:07;;;;;;;;;;;;;;;9.69;65.43;99000.03;4972449;28;19957;-82
2021/05/02 08:21:37;;;;;;;;;;;;;;;9.49;65.17;99003.25;4972799;28;20275;-82
2021/05/02 08:24:05;;;;;;;;;;;;;;;9.53;67.04;99007.28;4971888;28;20409;-82
2021/05/02 08:26:34;;;;;;;;;;;;;;;9.81;68.46;98997.72;4968119;28;19934;-82
2021/05/02 08:29:00;;;;;;;;;;;;;;;9.91;66.37;98999.13;4972101;28;20038;-82
2021/05/02 08:31:30;;;;;;;;;;;;;;;10.00;65.96;98999.06;4971683;28;19926;-82
2021/05/02 08:34:02;;;;;;;;;;;;;;;10.12;65.62;99004.88;4972975;28;19932;-82
2021/05/02 08:36:29;;;;;;;;;;;;;;;10.04;64.16;99003.09;4969900;28;19930;-82
2021/05/02 08:38:55;;;;;;;;;;;;;;;9.77;66.13;99012.69;4972295;28;19926;-82
2021/05/02 08:41:21;;;;;;;;;;;;;;;10.00;63.17;99004.50;4962689;28;19939;-84
2021/05/02 08:43:50;;;;;;;;;;;;;;;10.26;64.68;99009.47;4970857;28;19930;-84
2021/05/02 08:46:20;;;;;;;;;;;;;;;10.36;59.87;99012.81;4951213;28;19927;-85
2021/05/02 08:48:46;;;;;;;;;;;;;;;10.38;57.24;99004.47;4970723;28;19926;-83
2021/05/02 08:51:13;;;;;;;;;;;;;;;10.76;60.31;99009.75;4971714;28;19957;-83
2021/05/02 08:53:40;;;;;;;;;;;;;;;10.84;59.81;99011.53;4970482;28;20290;-83
2021/05/02 08:56:06;;;;;;;;;;;;;;;10.91;58.42;99009.75;4964889;28;19948;-83
2021/05/02 08:58:32;;;;;;;;;;;;;;;11.28;59.04;99007.88;4959879;28;19926;-83
2021/05/02 09:01:01;;;;;;;;;;;;;;;11.63;57.15;99007.97;4970420;28;19934;-83
2021/05/02 09:03:40;;;;;;;;;;;;;;;11.25;57.03;99002.81;4971253;28;20405;-83
2021/05/02 09:06:15;;;;;;;;;;;;;;;11.18;59.57;99010.88;4969839;28;20437;-83
2021/05/02 09:08:41;;;;;;;;;;;;;;;11.46;57.12;99010.97;4969753;28;19926;-83
2021/05/02 09:11:15;;;;;;;;;;;;;;;11.16;57.29;99007.53;4968491;28;20293;-83
2021/05/02 09:13:46;;;;;;;;;;;;;;;10.73;58.80;99007.44;4965724;28;20286;-83
2021/05/02 09:16:12;;;;;;;;;;;;;;;10.73;59.76;99010.97;4968306;28;19945;-83
2021/05/02 09:18:40;;;;;;;;;;;;;;;11.04;57.44;99012.63;4970558;28;19926;-84
2021/05/02 09:21:07;;;;;;;;;;;;;;;11.17;57.36;99014.66;4971313;28;19954;-83
2021/05/02 09:23:41;;;;;;;;;;;;;;;11.45;58.17;99009.28;4971134;28;20390;-83
2021/05/02 09:26:08;;;;;;;;;;;;;;;11.76;57.23;99007.28;4972955;28;19969;-83
2021/05/02 09:28:41;;;;;;;;;;;;;;;11.91;54.69;99008.03;4968804;28;19933;-83
2021/05/02 09:31:10;;;;;;;;;;;;;;;11.72;56.28;99011.41;4965893;28;19926;-83
2021/05/02 09:33:36;;;;;;;;;;;;;;;11.66;53.44;99005.69;4969804;28;19926;-83
2021/05/02 09:36:02;;;;;;;;;;;;;;;11.48;57.10;99008.06;4972629;28;19970;-83
2021/05/02 09:38:34;;;;;;;;;;;;;;;11.44;55.26;99015.78;4971785;28;19973;-83
2021/05/02 09:41:02;;;;;;;;;;;;;;;11.96;57.05;99008.28;4971942;28;19962;-83
2021/05/02 09:43:46;;;;;;;;;;;;;;;11.96;52.98;99008.28;4959666;28;19926;-83
2021/05/02 09:46:26;;;;;;;;;;;;;;;12.52;51.65;99006.56;4970549;28;19926;-84
2021/05/02 09:48:56;;;;;;;;;;;;;;;12.42;50.02;99014.25;4971180;28;20440;-83
2021/05/02 09:51:26;;;;;;;;;;;;;;;12.57;51.80;99015.81;4972402;28;19933;-82
2021/05/02 09:53:59;;;;;;;;;;;;;;;12.16;48.52;99015.78;4975929;28;19930;-83
2021/05/02 09:56:30;;;;;;;;;;;;;;;11.85;51.29;99017.81;4974427;28;20350;-82
2021/05/02 09:58:56;;;;;;;;;;;;;;;11.62;52.64;99020.78;4975738;28;20397;-82
2021/05/02 10:01:22;;;;;;;;;;;;;;;11.91;49.92;99020.78;4972134;28;19926;-83
2021/05/02 10:03:51;;;;;;;;;;;;;;;11.90;52.39;99014.50;4964514;28;19934;-82
2021/05/02 10:06:29;;;;;;;;;;;;;;;11.75;50.59;99021.91;4964820;28;20441;-83
2021/05/02 10:08:55;;;;;;;;;;;;;;;11.63;52.70;99022.44;4973264;28;20386;-83
2021/05/02 10:11:26;;;;;;;;;;;;;;;11.48;53.13;99027.94;4972520;28;19930;-83
2021/05/02 10:13:53;;;;;;;;;;;;;;;11.21;51.75;99021.38;4969802;28;19926;-83
2021/05/02 10:16:19;;;;;;;;;;;;;;;11.55;53.20;99022.56;4976268;28;19930;-82
2021/05/02 10:18:49;;;;;;;;;;;;;;;11.75;52.97;99024.63;4974729;28;19973;-83
2021/05/02 10:21:15;;;;;;;;;;;;;;;12.11;51.23;99020.97;4957452;28;20429;-83
2021/05/02 10:23:42;;;;;;;;;;;;;;;12.59;50.38;99021.06;4974620;28;19926;-83
2021/05/02 10:26:08;;;;;;;;;;;;;;;13.01;50.84;99021.06;4973062;28;20420;-83
2021/05/02 10:28:36;;;;;;;;;;;;;;;13.35;49.66;99027.47;4973673;28;19961;-83
2021/05/02 10:31:04;;;;;;;;;;;;;;;12.89;47.99;99018.91;4973512;28;20290;-82
2021/05/02 10:33:34;;;;;;;;;;;;;;;12.44;49.18;99021.19;4974611;28;20271;-83
2021/05/02 10:36:01;;;;;;;;;;;;;;;12.20;51.61;99022.50;4972589;28;19927;-83
2021/05/02 10:38:42;;;;;;;;;;;;;;;12.22;52.59;99020.41;4974286;28;19966;-83
2021/05/02 10:41:28;;;;;;;;;;;;;;;11.94;50.52;99012.25;4965784;28;19961;-83
2021/05/02 10:43:54;;;;;;;;;;;;;;;11.46;51.44;99018.31;4965822;28;20048;-82
2021/05/02 10:46:39;;;;;;;;;;;;;;;11.38;51.64;99019.28;4974908;28;19926;-83
2021/05/02 10:49:06;;;;;;;;;;;;;;;11.37;51.12;99019.47;4974453;28;19933;-84
2021/05/02 10:51:34;;;;;;;;;;;;;;;11.39;50.72;99023.66;4960680;28;19934;-83
2021/05/02 10:54:07;;;;;;;;;;;;;;;11.25;51.57;99025.41;4962955;28;20441;-83
2021/05/02 10:56:51;;;;;;;;;;;;;;;11.22;50.10;99031.25;4967765;28;19973;-83
2021/05/02 10:59:18;;;;;;;;;;;;;;;10.98;55.16;99035.97;4973777;28;19926;-83
2021/05/02 11:01:44;;;;;;;;;;;;;;;10.70;55.25;99048.59;4972184;28;20408;-82
2021/05/02 11:04:11;;;;;;;;;;;;;;;10.67;59.31;99047.09;4973406;28;20315;-82
2021/05/02 11:06:55;;;;;;;;;;;;;;;10.58;59.45;99043.66;4973745;28;19988;-83
2021/05/02 11:12:28;;;;;;;;;;;;;;;10.63;60.05;99062.94;4973025;28;19933;-84
2021/05/02 11:14:54;;;;;;;;;;;;;;;10.52;57.87;99065.28;4972268;28;19961;-83
2021/05/02 11:17:24;;;;;;;;;;;;;;;10.39;58.83;99066.78;4973862;28;19926;-83
2021/05/02 11:19:53;;;;;;;;;;;;;;;10.28;58.12;99064.47;4973625;28;19926;-84
2021/05/02 11:22:20;;;;;;;;;;;;;;;10.19;59.74;99071.00;4974683;28;20167;-83
2021/05/02 11:24:56;;;;;;;;;;;;;;;10.14;58.63;99078.88;4974119;28;20434;-83
2021/05/02 11:27:42;;;;;;;;;;;;;;;10.28;60.65;99080.78;4977259;28;19941;-83
2021/05/02 11:30:16;;;;;;;;;;;;;;;10.21;59.21;99083.41;4973222;28;20317;-84
2021/05/02 11:32:43;;;;;;;;;;;;;;;10.05;58.27;99087.09;4973961;28;19933;-84
2021/05/02 11:35:11;;;;;;;;;;;;;;;9.87;57.33;99090.13;4961163;28;19927;-84
2021/05/02 11:37:37;;;;;;;;;;;;;;;9.96;57.46;99090.91;4973631;28;19926;-83
2021/05/02 11:40:26;;;;;;;;;;;;;;;9.72;58.32;99103.66;4973056;28;19926;-84
2021/05/02 11:42:52;;;;;;;;;;;;;;;9.80;59.40;99101.91;4971925;28;20293;-84
2021/05/02 11:45:21;;;;;;;;;;;;;;;9.72;57.06;99103.66;4973234;28;19926;-83
2021/05/02 11:48:08;;;;;;;;;;;;;;;;;;;;;
2021/05/02 11:50:39;;;;;;;;;;;;;;;9.79;57.51;99109.22;4956096;28;19932;-83
2021/05/02 11:53:05;;;;;;;;;;;;;;;9.66;57.24;99104.38;4973365;28;19934;-84
2021/05/02 11:55:33;;;;;;;;;;;;;;;9.94;57.64;99103.00;4973088;28;19926;-83
2021/05/02 11:58:03;;;;;;;;;;;;;;;10.20;57.05;99111.59;4964843;28;20032;-83
2021/05/02 12:00:40;;;;;;;;;;;;;;;10.39;58.05;99107.53;4955141;28;19973;-84
2021/05/02 12:03:09;;;;;;;;;;;;;;;10.73;57.12;99100.69;4961157;28;19982;-84
2021/05/02 12:05:47;;;;;;;;;;;;;;;10.90;58.61;99100.50;4972485;28;19930;-84
2021/05/02 12:08:17;;;;;;;;;;;;;;;11.08;55.63;99087.38;4972439;28;20089;-84
2021/05/02 12:10:43;;;;;;;;;;;;;;;11.26;57.36;99089.69;4963381;28;19926;-84
2021/05/02 12:13:24;;;;;;;;;;;;;;;11.16;55.01;99080.97;4972846;28;19926;-84
2021/05/02 12:15:58;;;;;;;;;;;;;;;11.05;56.08;99089.63;4971325;28;19926;-85
2021/05/02 12:18:39;;;;;;;;;;;;;;;11.62;55.55;99086.13;4973290;28;19926;-83
2021/05/02 12:21:17;;;;;;;;;;;;;;;12.25;55.10;99079.16;4972266;28;19926;-83
2021/05/02 12:23:43;;;;;;;;;;;;;;;12.16;52.28;99075.72;4971477;28;19981;-83
2021/05/02 12:26:10;;;;;;;;;;;;;;;12.19;51.47;99084.38;4971678;28;19926;-83
2021/05/02 12:28:36;;;;;;;;;;;;;;;12.44;52.77;99080.34;4972668;28;20307;-83
2021/05/02 12:31:04;;;;;;;;;;;;;;;12.31;53.47;99078.34;4972281;28;20294;-83
2021/05/02 12:33:38;;;;;;;;;;;;;;;12.20;50.71;99079.75;4967325;28;20025;-83
2021/05/02 12:36:08;;;;;;;;;;;;;;;12.34;51.07;99075.22;4971746;28;19926;-83
2021/05/02 12:38:35;;;;;;;;;;;;;;;12.82;50.37;99074.50;4973044;28;20024;-84
2021/05/02 12:41:02;;;;;;;;;;;;;;;13.24;49.89;99072.56;4970998;28;19932;-83
2021/05/02 12:43:29;;;;;;;;;;;;;;;12.94;47.42;99070.13;4973102;28;20102;-83
2021/05/02 12:45:55;;;;;;;;;;;;;;;12.57;47.94;99075.81;4971747;28;20016;-83
2021/05/02 12:48:25;;;;;;;;;;;;;;;12.67;48.62;99082.78;4973066;28;19926;-83
2021/05/02 12:50:51;;;;;;;;;;;;;;;12.60;46.84;99080.03;4963043;28;19926;-83
2021/05/02 12:53:17;;;;;;;;;;;;;;;12.98;48.89;99074.16;4972844;28;19930;-82
2021/05/02 12:55:52;;;;;;;;;;;;;;;12.69;45.20;99073.38;4963299;28;19949;-83
2021/05/02 12:58:32;;;;;;;;;;;;;;;12.81;47.91;99079.13;4967454;28;19930;-83
2021/05/02 13:01:01;;;;;;;;;;;;;;;12.70;46.62;99080.50;4973280;28;19992;-83
2021/05/02 13:03:35;;;;;;;;;;;;;;;12.23;48.76;99082.06;4968911;28;20019;-83
2021/05/02 13:06:01;;;;;;;;;;;;;;;11.98;48.45;99082.50;4972356;28;19937;-83
2021/05/02 13:08:27;;;;;;;;;;;;;;;11.97;49.64;99083.53;4969131;28;19930;-83
2021/05/02 13:10:58;;;;;;;;;;;;;;;11.57;51.05;99091.28;4954319;28;20323;-83
2021/05/02 13:13:24;;;;;;;;;;;;;;;10.79;49.96;99107.28;4968560;28;19951;-84
2021/05/02 13:15:50;;;;;;;;;;;;;;;10.00;57.92;99122.13;4955795;28;19926;-84